Time;durP1;ratioP1;P1;durP2;ratioP2;P2;SDS_P1;SDS_P2;PMS_P1;PMS_P2;Temp;Humidity;BMP_temperature;BMP_pressure;BME280_temperature;BME280_humidity;BME280_pressure;Samples;Min_cycle;Max_cycle;Signal;HPM_P1;HPM_P2
2022/03/06 00:01:16;;;;;;;19.75;10.40;;;3.80;99.90;;;;;;5048634;28;20322;-72
2022/03/06 00:03:45;;;;;;;14.02;11.77;;;3.80;99.90;;;;;;5056001;28;20278;-76
2022/03/06 00:06:13;;;;;;;13.68;11.45;;;3.70;99.90;;;;;;5055599;28;20223;-77
2022/03/06 00:08:40;;;;;;;15.27;11.93;;;3.70;99.90;;;;;;5052551;28;20195;-72
2022/03/06 00:11:08;;;;;;;16.95;10.35;;;3.60;99.90;;;;;;5054939;28;20227;-75
2022/03/06 00:13:35;;;;;;;13.05;10.48;;;3.60;99.90;;;;;;5055209;28;20299;-77
2022/03/06 00:16:02;;;;;;;12.38;10.02;;;3.60;99.90;;;;;;5055879;28;20613;-74
2022/03/06 00:18:29;;;;;;;15.82;11.35;;;3.60;99.90;;;;;;5055698;28;20202;-75
2022/03/06 00:20:59;;;;;;;15.65;10.60;;;3.60;99.90;;;;;;5055121;28;20301;-73
2022/03/06 00:23:26;;;;;;;13.10;10.70;;;3.60;99.90;;;;;;5055865;28;20211;-76
2022/03/06 00:25:53;;;;;;;12.68;9.20;;;3.60;99.90;;;;;;5056331;28;20224;-74
2022/03/06 00:28:21;;;;;;;18.80;10.02;;;3.60;99.90;;;;;;5057049;28;20313;-74
2022/03/06 00:30:48;;;;;;;12.68;9.73;;;3.60;99.90;;;;;;5055429;28;20270;-76
2022/03/06 00:33:15;;;;;;;14.30;9.50;;;3.60;99.90;;;;;;5055167;28;20207;-70
2022/03/06 00:35:41;;;;;;;15.13;10.10;;;3.70;99.90;;;;;;5054953;28;20328;-73
2022/03/06 00:38:10;;;;;;;13.15;8.80;;;3.70;99.90;;;;;;5055591;28;20257;-75
2022/03/06 00:40:37;;;;;;;11.30;7.97;;;3.70;99.90;;;;;;5054635;28;20665;-75
2022/03/06 00:43:04;;;;;;;13.02;9.00;;;3.60;99.90;;;;;;5054635;28;20246;-73
2022/03/06 00:45:31;;;;;;;8.93;7.85;;;3.60;99.90;;;;;;5055761;28;20208;-72
2022/03/06 00:47:58;;;;;;;18.33;9.80;;;3.60;99.90;;;;;;5054773;28;20211;-77
2022/03/06 00:50:25;;;;;;;11.95;9.32;;;3.60;99.90;;;;;;5047881;28;20291;-74
2022/03/06 00:52:53;;;;;;;10.07;8.18;;;3.50;99.90;;;;;;5054333;28;20698;-74
2022/03/06 00:55:21;;;;;;;11.85;8.77;;;3.50;99.90;;;;;;5054786;28;20200;-73
2022/03/06 00:57:49;;;;;;;11.52;8.70;;;3.50;99.90;;;;;;5053721;28;20267;-73
2022/03/06 01:00:16;;;;;;;8.43;7.00;;;3.50;99.90;;;;;;5054688;28;20203;-73
2022/03/06 01:02:43;;;;;;;9.98;7.85;;;3.50;99.90;;;;;;5054362;28;20231;-74
2022/03/06 01:05:10;;;;;;;13.55;8.48;;;3.50;99.90;;;;;;5054424;28;20290;-72
2022/03/06 01:07:39;;;;;;;9.38;6.70;;;3.50;99.90;;;;;;5054199;28;20198;-73
2022/03/06 01:10:07;;;;;;;10.25;6.82;;;3.50;99.90;;;;;;5053697;28;20214;-72
2022/03/06 01:12:35;;;;;;;11.05;7.85;;;3.50;99.90;;;;;;5046427;28;20680;-74
2022/03/06 01:15:02;;;;;;;14.10;8.25;;;3.50;99.90;;;;;;5054088;28;20729;-73
2022/03/06 01:17:29;;;;;;;9.15;7.35;;;3.50;99.90;;;;;;5054422;28;20231;-76
2022/03/06 01:19:56;;;;;;;8.30;7.18;;;3.50;99.90;;;;;;5055129;28;20246;-74
2022/03/06 01:22:24;;;;;;;9.07;7.30;;;3.40;99.90;;;;;;5053827;28;20232;-73
2022/03/06 01:24:51;;;;;;;10.27;7.85;;;3.40;99.90;;;;;;5053845;28;20207;-73
2022/03/06 01:27:18;;;;;;;10.27;8.10;;;3.40;99.90;;;;;;5050602;28;20759;-76
2022/03/06 01:29:46;;;;;;;9.40;7.53;;;3.40;99.90;;;;;;5053449;28;20290;-73
2022/03/06 01:32:13;;;;;;;9.50;7.45;;;3.40;99.90;;;;;;5055246;28;20234;-73
2022/03/06 01:34:40;;;;;;;14.18;8.70;;;3.30;99.90;;;;;;5053654;28;20251;-72
2022/03/06 01:37:07;;;;;;;7.82;6.60;;;3.30;99.90;;;;;;5053308;28;20287;-75
2022/03/06 01:39:34;;;;;;;13.75;7.60;;;3.30;99.90;;;;;;5053128;28;20297;-72
2022/03/06 01:42:01;;;;;;;11.70;7.57;;;3.20;99.90;;;;;;5053767;28;20258;-73
2022/03/06 01:44:28;;;;;;;7.40;6.45;;;3.20;99.90;;;;;;5057130;28;20279;-73
2022/03/06 01:46:56;;;;;;;9.10;6.85;;;3.20;99.90;;;;;;5053782;28;20715;-76
2022/03/06 01:49:23;;;;;;;9.50;7.53;;;3.20;99.90;;;;;;5052574;28;20238;-75
2022/03/06 01:51:50;;;;;;;8.98;7.30;;;3.20;99.90;;;;;;5052651;28;20584;-76
2022/03/06 01:54:17;;;;;;;7.55;6.45;;;3.20;99.90;;;;;;5053364;28;20206;-75
2022/03/06 01:56:44;;;;;;;11.23;7.72;;;3.20;99.90;;;;;;5053384;28;20199;-73
2022/03/06 01:59:12;;;;;;;7.28;6.32;;;3.30;99.90;;;;;;5053055;28;20202;-72
2022/03/06 02:01:39;;;;;;;13.38;9.43;;;3.20;99.90;;;;;;5052403;28;20300;-76
2022/03/06 02:04:08;;;;;;;8.80;6.97;;;3.20;99.90;;;;;;5052638;28;20198;-74
2022/03/06 02:06:37;;;;;;;10.85;7.65;;;3.30;99.90;;;;;;5054796;28;20310;-72
2022/03/06 02:09:04;;;;;;;9.27;7.20;;;3.30;99.90;;;;;;5049707;28;20211;-72
2022/03/06 02:11:32;;;;;;;8.88;7.30;;;3.30;99.90;;;;;;5052090;28;20310;-71
2022/03/06 02:14:02;;;;;;;9.18;7.60;;;3.20;99.90;;;;;;5052768;28;20198;-74
2022/03/06 02:16:32;;;;;;;8.57;7.70;;;3.20;99.90;;;;;;5052879;28;20283;-74
2022/03/06 02:18:59;;;;;;;10.50;7.65;;;3.20;99.90;;;;;;5052723;28;20215;-75
2022/03/06 02:21:27;;;;;;;7.85;7.05;;;3.10;99.90;;;;;;5052316;28;20223;-74
2022/03/06 02:23:54;;;;;;;12.27;7.20;;;3.10;99.90;;;;;;5052812;28;20199;-72
2022/03/06 02:26:21;;;;;;;8.68;6.72;;;3.10;99.90;;;;;;5047857;28;20238;-70
2022/03/06 02:28:48;;;;;;;10.18;6.88;;;3.10;99.90;;;;;;5053065;28;20196;-73
2022/03/06 02:31:16;;;;;;;9.98;7.78;;;3.10;99.90;;;;;;5051806;28;20223;-73
2022/03/06 02:33:43;;;;;;;12.48;7.35;;;3.10;99.90;;;;;;5052929;28;20649;-75
2022/03/06 02:36:10;;;;;;;10.98;7.20;;;3.10;99.90;;;;;;5053215;28;20278;-72
2022/03/06 02:38:38;;;;;;;12.50;7.47;;;3.10;99.90;;;;;;5052286;28;20210;-74
2022/03/06 02:41:05;;;;;;;13.20;7.15;;;3.10;99.90;;;;;;5048600;28;20308;-73
2022/03/06 02:43:32;;;;;;;8.57;6.68;;;3.20;99.90;;;;;;5048317;28;20203;-74
2022/03/06 02:45:59;;;;;;;8.82;6.97;;;3.10;99.90;;;;;;5052602;28;20757;-75
2022/03/06 02:48:26;;;;;;;7.13;6.43;;;3.20;99.90;;;;;;5052656;28;20204;-72
2022/03/06 02:50:53;;;;;;;10.60;7.78;;;3.30;99.90;;;;;;5051610;28;20203;-72
2022/03/06 02:53:22;;;;;;;11.55;7.30;;;3.30;99.90;;;;;;5052468;28;20291;-72
2022/03/06 02:55:51;;;;;;;7.43;6.28;;;3.20;99.90;;;;;;5052088;28;20213;-71
2022/03/06 02:58:19;;;;;;;10.63;7.13;;;3.20;99.90;;;;;;5051917;28;20217;-73
2022/03/06 03:00:46;;;;;;;11.43;8.05;;;3.20;99.90;;;;;;5051247;28;20233;-75
2022/03/06 03:03:13;;;;;;;8.27;5.90;;;3.20;99.90;;;;;;5052580;28;20752;-71
2022/03/06 03:05:39;;;;;;;10.43;7.47;;;3.20;99.90;;;;;;5052667;28;20227;-77
2022/03/06 03:08:07;;;;;;;7.85;6.70;;;3.20;99.90;;;;;;5052345;28;20234;-73
2022/03/06 03:10:34;;;;;;;10.40;6.50;;;3.20;99.90;;;;;;5049473;28;20298;-74
2022/03/06 03:13:03;;;;;;;9.50;7.60;;;3.20;99.90;;;;;;5049204;28;20641;-75
2022/03/06 03:15:29;;;;;;;8.90;7.82;;;3.20;99.90;;;;;;5052502;28;20295;-71
2022/03/06 03:17:56;;;;;;;8.75;6.80;;;3.30;99.90;;;;;;5061198;28;20194;-75
2022/03/06 03:20:23;;;;;;;9.63;7.18;;;3.20;99.90;;;;;;5052626;28;20555;-74
2022/03/06 03:22:50;;;;;;;10.15;7.10;;;3.20;99.90;;;;;;5054143;28;20607;-75
2022/03/06 03:25:17;;;;;;;14.05;7.35;;;3.20;99.90;;;;;;5056659;28;20208;-73
2022/03/06 03:27:44;;;;;;;9.07;7.30;;;3.10;99.90;;;;;;5053509;28;20227;-72
2022/03/06 03:30:14;;;;;;;9.10;7.00;;;3.20;99.90;;;;;;5053186;28;20539;-74
2022/03/06 03:32:42;;;;;;;8.00;6.28;;;3.20;99.90;;;;;;5054639;28;20333;-73
2022/03/06 03:35:10;;;;;;;7.32;5.93;;;3.10;99.90;;;;;;5055690;28;20214;-72
2022/03/06 03:37:37;;;;;;;9.20;7.00;;;3.20;99.90;;;;;;5054854;28;20282;-75
2022/03/06 03:40:07;;;;;;;8.85;6.95;;;3.20;99.90;;;;;;5046772;28;20242;-72
2022/03/06 03:42:34;;;;;;;9.80;5.80;;;3.20;99.90;;;;;;5055299;28;20261;-73
2022/03/06 03:45:02;;;;;;;9.10;6.78;;;3.20;99.90;;;;;;5055382;28;20202;-71
2022/03/06 03:47:30;;;;;;;7.47;6.38;;;3.20;99.90;;;;;;5055988;28;20571;-74
2022/03/06 03:49:57;;;;;;;8.18;6.28;;;3.10;99.90;;;;;;5054395;28;20286;-73
2022/03/06 03:52:26;;;;;;;12.30;6.78;;;3.10;99.90;;;;;;5057917;28;20255;-73
2022/03/06 03:54:53;;;;;;;7.97;6.03;;;3.20;99.90;;;;;;5055857;28;20242;-76
2022/03/06 03:57:23;;;;;;;9.88;5.80;;;3.20;99.90;;;;;;5055328;28;20202;-73
2022/03/06 03:59:50;;;;;;;7.28;5.70;;;3.20;99.90;;;;;;5054751;28;20246;-73
2022/03/06 04:02:17;;;;;;;6.15;5.50;;;3.20;99.90;;;;;;5053661;28;20372;-73
2022/03/06 04:04:45;;;;;;;6.35;5.57;;;3.20;99.90;;;;;;5052505;28;20297;-75
2022/03/06 04:07:12;;;;;;;6.85;5.97;;;3.20;99.90;;;;;;5054952;28;20294;-74
2022/03/06 04:09:39;;;;;;;7.05;5.45;;;3.20;99.90;;;;;;5054298;28;20199;-71
2022/03/06 04:12:06;;;;;;;7.13;5.90;;;3.10;99.90;;;;;;5054743;28;20327;-73
2022/03/06 04:14:33;;;;;;;7.70;5.75;;;3.10;99.90;;;;;;5054626;28;20671;-74
2022/03/06 04:17:00;;;;;;;7.75;5.57;;;3.10;99.90;;;;;;5054807;28;20624;-76
2022/03/06 04:19:27;;;;;;;8.82;6.15;;;3.10;99.90;;;;;;5054257;28;20301;-71
2022/03/06 04:21:55;;;;;;;7.18;5.00;;;3.20;99.90;;;;;;5054047;28;20242;-71
2022/03/06 04:24:22;;;;;;;8.68;4.53;;;3.20;99.90;;;;;;5054819;28;20278;-74
2022/03/06 04:26:49;;;;;;;8.68;6.28;;;3.20;99.90;;;;;;5054802;28;20299;-72
2022/03/06 04:29:16;;;;;;;5.68;5.07;;;3.20;99.90;;;;;;5057089;28;20210;-71
2022/03/06 04:31:43;;;;;;;9.50;5.70;;;3.10;99.90;;;;;;5053813;28;20327;-75
2022/03/06 04:34:10;;;;;;;9.98;6.20;;;3.20;99.90;;;;;;5055005;28;20310;-71
2022/03/06 04:36:37;;;;;;;7.95;5.10;;;3.20;99.90;;;;;;5054306;28;20206;-72
2022/03/06 04:39:05;;;;;;;8.00;4.90;;;3.20;99.90;;;;;;5046639;28;20538;-74
2022/03/06 04:41:33;;;;;;;15.45;5.72;;;3.20;99.90;;;;;;5053400;28;20287;-73
2022/03/06 04:43:59;;;;;;;4.80;4.32;;;3.20;99.90;;;;;;5054673;28;20638;-73
2022/03/06 04:46:27;;;;;;;7.10;4.93;;;3.20;99.90;;;;;;5054232;28;20515;-73
2022/03/06 04:48:55;;;;;;;5.40;4.85;;;3.20;99.90;;;;;;5054426;28;20517;-71
2022/03/06 04:51:22;;;;;;;6.18;5.05;;;3.10;99.90;;;;;;5053950;28;20238;-74
2022/03/06 04:53:49;;;;;;;6.30;4.47;;;3.10;99.90;;;;;;5054909;28;20301;-73
2022/03/06 04:56:18;;;;;;;7.85;4.50;;;3.10;99.90;;;;;;5054538;28;20218;-71
2022/03/06 04:58:45;;;;;;;4.65;4.22;;;3.20;99.90;;;;;;5054063;28;20219;-72
2022/03/06 05:01:11;;;;;;;6.90;3.97;;;3.20;99.90;;;;;;5053131;28;20312;-72
2022/03/06 05:03:38;;;;;;;5.13;3.95;;;3.20;99.90;;;;;;5054895;28;20202;-73
2022/03/06 05:06:05;;;;;;;8.45;4.75;;;3.10;99.90;;;;;;5055100;28;20208;-74
2022/03/06 05:08:32;;;;;;;4.32;3.92;;;3.20;99.90;;;;;;5053661;28;20211;-75
2022/03/06 05:10:59;;;;;;;5.20;4.55;;;3.20;99.90;;;;;;5053017;28;20285;-76
2022/03/06 05:13:27;;;;;;;7.03;4.03;;;3.20;99.90;;;;;;5054838;28;20208;-73
2022/03/06 05:15:55;;;;;;;7.82;4.93;;;3.20;99.90;;;;;;5056130;28;20283;-75
2022/03/06 05:18:22;;;;;;;6.03;3.67;;;3.20;99.90;;;;;;5053746;28;20246;-73
2022/03/06 05:20:49;;;;;;;5.95;4.35;;;3.20;99.90;;;;;;5048693;28;20295;-74
2022/03/06 05:23:17;;;;;;;7.43;4.28;;;3.20;99.90;;;;;;5053869;28;20210;-75
2022/03/06 05:25:44;;;;;;;5.03;4.13;;;3.20;99.90;;;;;;5057139;28;20198;-72
2022/03/06 05:28:11;;;;;;;6.18;3.70;;;3.20;99.90;;;;;;5053748;28;20752;-75
2022/03/06 05:30:39;;;;;;;8.40;4.43;;;3.10;99.90;;;;;;5054550;28;20231;-74
2022/03/06 05:33:06;;;;;;;4.30;3.63;;;3.10;99.90;;;;;;5053460;28;20310;-71
2022/03/06 05:35:33;;;;;;;4.40;4.00;;;3.10;99.90;;;;;;5053683;28;20296;-72
2022/03/06 05:38:00;;;;;;;5.35;4.07;;;3.00;99.90;;;;;;5053554;28;20286;-75
2022/03/06 05:40:27;;;;;;;4.18;3.47;;;3.10;99.90;;;;;;5052955;28;20485;-75
2022/03/06 05:42:54;;;;;;;5.05;3.47;;;3.10;99.90;;;;;;5052977;28;20316;-76
2022/03/06 05:45:21;;;;;;;5.43;3.97;;;3.10;99.90;;;;;;5053767;28;20205;-76
2022/03/06 05:47:49;;;;;;;8.13;5.00;;;3.10;99.90;;;;;;5052757;28;20258;-74
2022/03/06 05:50:18;;;;;;;6.90;3.88;;;3.00;99.90;;;;;;5052784;28;20292;-73
2022/03/06 05:52:48;;;;;;;5.85;4.70;;;3.00;99.90;;;;;;5052706;28;20230;-74
2022/03/06 05:55:15;;;;;;;5.93;3.92;;;3.00;99.90;;;;;;5053597;28;20204;-75
2022/03/06 05:57:42;;;;;;;4.40;3.67;;;3.00;99.90;;;;;;5052903;28;20282;-71
2022/03/06 06:00:10;;;;;;;5.65;4.43;;;2.90;99.90;;;;;;5052583;28;20202;-75
2022/03/06 06:02:38;;;;;;;8.70;4.97;;;2.90;99.90;;;;;;5052549;28;20242;-75
2022/03/06 06:05:08;;;;;;;6.68;4.72;;;2.80;99.90;;;;;;5045772;28;20290;-70
2022/03/06 06:07:37;;;;;;;3.75;3.45;;;2.80;99.90;;;;;;5052950;28;20660;-71
2022/03/06 06:10:04;;;;;;;6.13;4.20;;;2.90;99.90;;;;;;5045952;28;20286;-74
2022/03/06 06:12:31;;;;;;;4.88;3.83;;;2.80;99.90;;;;;;5052717;28;20309;-76
2022/03/06 06:14:58;;;;;;;4.97;3.67;;;2.80;99.90;;;;;;5052041;28;20221;-75
2022/03/06 06:17:25;;;;;;;6.05;3.80;;;2.90;99.90;;;;;;5039562;28;20272;-75
2022/03/06 06:19:52;;;;;;;6.40;3.65;;;2.90;99.90;;;;;;5051724;28;20290;-73
2022/03/06 06:22:21;;;;;;;9.00;4.50;;;3.00;99.90;;;;;;5052690;28;20254;-76
2022/03/06 06:24:48;;;;;;;5.57;4.00;;;3.00;99.90;;;;;;5053927;28;20287;-71
2022/03/06 06:27:15;;;;;;;5.53;3.97;;;3.00;99.90;;;;;;5051692;28;20276;-71
2022/03/06 06:29:42;;;;;;;4.90;4.43;;;3.00;99.90;;;;;;5051584;28;20647;-75
2022/03/06 06:32:09;;;;;;;3.97;3.28;;;3.00;99.90;;;;;;5052336;28;20297;-73
2022/03/06 06:34:36;;;;;;;4.72;3.90;;;3.10;99.90;;;;;;5052266;28;20211;-71
2022/03/06 06:37:03;;;;;;;4.68;3.38;;;3.10;99.90;;;;;;5052510;28;20289;-72
2022/03/06 06:39:31;;;;;;;9.90;4.35;;;3.20;99.90;;;;;;5052500;28;20296;-72
2022/03/06 06:42:01;;;;;;;6.07;3.72;;;3.20;99.90;;;;;;5051138;28;20738;-73
2022/03/06 06:44:28;;;;;;;7.25;3.88;;;3.20;99.90;;;;;;5049180;28;20206;-73
2022/03/06 06:46:55;;;;;;;5.43;2.80;;;3.20;99.90;;;;;;5052403;28;20289;-71
2022/03/06 06:49:22;;;;;;;6.45;3.67;;;3.30;99.90;;;;;;5052320;28;20658;-75
2022/03/06 06:51:49;;;;;;;4.20;3.60;;;3.30;99.90;;;;;;5051804;28;20233;-73
2022/03/06 06:54:16;;;;;;;6.07;3.50;;;3.30;99.90;;;;;;5047262;28;20203;-73
2022/03/06 06:56:44;;;;;;;4.75;3.20;;;3.40;99.90;;;;;;5056793;28;20282;-72
2022/03/06 06:59:13;;;;;;;3.65;2.75;;;3.40;99.90;;;;;;5057611;28;20548;-71
2022/03/06 07:01:40;;;;;;;6.63;3.88;;;3.60;99.90;;;;;;5056789;28;20234;-74
2022/03/06 07:04:07;;;;;;;4.38;3.35;;;3.60;99.90;;;;;;5042406;28;20634;-71
2022/03/06 07:06:35;;;;;;;5.43;3.30;;;3.60;99.90;;;;;;5045274;28;20215;-74
2022/03/06 07:09:01;;;;;;;5.93;4.20;;;3.60;99.90;;;;;;5057144;28;20254;-76
2022/03/06 07:11:28;;;;;;;3.67;3.00;;;3.70;99.90;;;;;;5048264;28;20255;-75
2022/03/06 07:13:57;;;;;;;5.00;3.05;;;3.70;99.90;;;;;;5056763;28;20701;-73
2022/03/06 07:16:25;;;;;;;3.85;3.45;;;3.70;99.90;;;;;;5057081;28;20230;-72
2022/03/06 07:18:53;;;;;;;4.53;3.15;;;3.70;99.90;;;;;;5056189;28;20695;-73
2022/03/06 07:21:20;;;;;;;3.83;2.92;;;3.80;99.90;;;;;;5056120;28;20682;-73
2022/03/06 07:23:47;;;;;;;6.07;4.15;;;3.90;99.90;;;;;;5056756;28;20293;-72
2022/03/06 07:26:14;;;;;;;4.15;3.20;;;3.80;99.90;;;;;;5056278;28;20295;-73
2022/03/06 07:28:41;;;;;;;3.60;2.85;;;3.80;99.90;;;;;;5055362;28;20211;-72
2022/03/06 07:31:10;;;;;;;4.25;3.38;;;3.80;99.90;;;;;;5055238;28;20279;-71
2022/03/06 07:33:37;;;;;;;5.00;2.90;;;3.80;99.90;;;;;;5055282;28;20207;-72
2022/03/06 07:36:05;;;;;;;7.25;3.13;;;3.80;99.90;;;;;;5057127;28;20291;-71
2022/03/06 07:38:32;;;;;;;10.85;3.58;;;3.90;99.90;;;;;;5056287;28;20195;-73
2022/03/06 07:40:59;;;;;;;5.43;3.55;;;3.90;99.90;;;;;;5054725;28;20277;-70
2022/03/06 07:43:26;;;;;;;5.50;3.15;;;4.00;99.90;;;;;;5055431;28;20216;-73
2022/03/06 07:45:53;;;;;;;3.53;2.95;;;4.20;99.90;;;;;;5049129;28;20207;-69
2022/03/06 07:48:21;;;;;;;6.25;3.70;;;4.00;99.90;;;;;;5055541;28;20749;-74
2022/03/06 07:50:48;;;;;;;5.63;3.72;;;4.10;99.90;;;;;;5055560;28;20295;-73
2022/03/06 07:53:15;;;;;;;3.60;3.13;;;4.20;99.90;;;;;;5056659;28;20658;-74
2022/03/06 07:55:42;;;;;;;5.13;3.50;;;4.30;99.90;;;;;;5056042;28;20290;-72
2022/03/06 07:58:09;;;;;;;4.82;3.50;;;4.40;99.90;;;;;;5056643;28;20291;-70
2022/03/06 08:00:36;;;;;;;4.20;3.80;;;4.40;99.90;;;;;;5056786;28;20199;-69
2022/03/06 08:03:03;;;;;;;5.22;3.97;;;4.50;99.90;;;;;;5055845;28;20328;-70
2022/03/06 08:05:32;;;;;;;6.55;3.90;;;4.60;99.90;;;;;;5054740;28;20204;-71
2022/03/06 08:07:59;;;;;;;9.40;3.97;;;4.80;99.90;;;;;;5055595;28;20327;-72
2022/03/06 08:10:26;;;;;;;4.45;3.60;;;4.80;99.90;;;;;;5056491;28;20319;-72
2022/03/06 08:12:54;;;;;;;6.70;3.78;;;5.00;99.90;;;;;;5040899;28;20742;-72
2022/03/06 08:15:22;;;;;;;6.22;3.60;;;5.40;99.90;;;;;;5044796;28;20202;-73
2022/03/06 08:17:49;;;;;;;5.97;4.22;;;5.80;99.70;;;;;;5044034;28;20284;-72
2022/03/06 08:20:16;;;;;;;4.88;4.03;;;6.30;98.80;;;;;;5047848;28;20279;-75
2022/03/06 08:22:44;;;;;;;4.78;3.53;;;6.70;96.80;;;;;;5048885;28;20270;-74
2022/03/06 08:25:11;;;;;;;4.30;3.50;;;7.20;95.20;;;;;;5044660;28;20619;-75
2022/03/06 08:27:38;;;;;;;3.75;3.45;;;7.80;93.30;;;;;;5044778;28;20296;-71
2022/03/06 08:30:08;;;;;;;5.10;4.53;;;8.30;91.20;;;;;;5053881;28;20207;-73
2022/03/06 08:32:35;;;;;;;7.03;3.25;;;8.50;90.20;;;;;;5053898;28;20259;-73
2022/03/06 08:35:02;;;;;;;4.72;3.83;;;8.60;88.80;;;;;;5050226;28;20216;-73
2022/03/06 08:37:29;;;;;;;5.32;3.90;;;8.90;89.20;;;;;;5041443;28;20207;-70
2022/03/06 08:39:57;;;;;;;4.72;3.70;;;9.10;87.30;;;;;;5045472;28;20667;-77
2022/03/06 08:42:24;;;;;;;8.68;3.60;;;9.00;86.30;;;;;;5044395;28;20274;-73
2022/03/06 08:44:51;;;;;;;4.85;4.28;;;8.80;86.60;;;;;;5042166;28;20742;-74
2022/03/06 08:47:18;;;;;;;4.10;3.55;;;8.90;87.10;;;;;;5049864;28;20208;-73
2022/03/06 08:49:45;;;;;;;5.20;4.35;;;9.20;86.70;;;;;;5043352;28;20234;-75
2022/03/06 08:52:13;;;;;;;5.07;4.03;;;10.00;84.40;;;;;;5047179;28;20226;-75
2022/03/06 08:54:40;;;;;;;5.85;4.00;;;11.30;82.50;;;;;;5053162;28;20210;-73
2022/03/06 08:57:09;;;;;;;4.70;4.28;;;12.20;77.90;;;;;;5046384;28;20227;-74
2022/03/06 08:59:39;;;;;;;4.18;3.45;;;13.70;74.40;;;;;;5048804;28;20278;-72
2022/03/06 09:02:06;;;;;;;5.93;4.43;;;15.10;70.50;;;;;;5050371;28;20230;-68
2022/03/06 09:04:33;;;;;;;4.97;4.53;;;16.00;65.10;;;;;;5053626;28;20541;-72
2022/03/06 09:07:00;;;;;;;4.77;4.27;;;16.60;62.40;;;;;;5053614;28;20575;-73
2022/03/06 09:09:28;;;;;;;5.87;4.83;;;17.60;59.50;;;;;;5050746;28;20576;-71
2022/03/06 09:11:55;;;;;;;6.10;4.47;;;17.60;56.80;;;;;;5053056;28;20498;-76
2022/03/06 09:14:24;;;;;;;4.70;3.70;;;17.60;56.70;;;;;;5053577;28;20501;-71
2022/03/06 09:16:51;;;;;;;4.00;3.47;;;18.10;55.50;;;;;;5053478;28;20441;-74
2022/03/06 09:19:17;;;;;;;5.83;3.70;;;19.20;53.90;;;;;;5053436;28;20551;-70
2022/03/06 09:21:45;;;;;;;5.63;4.10;;;19.30;51.80;;;;;;5046029;28;20471;-70
2022/03/06 09:24:12;;;;;;;4.20;3.80;;;19.70;50.30;;;;;;5053040;28;20457;-69
2022/03/06 09:26:40;;;;;;;5.33;3.53;;;19.40;49.50;;;;;;5054122;28;20441;-70
2022/03/06 09:29:07;;;;;;;4.43;3.97;;;19.40;48.70;;;;;;5057885;28;20563;-70
2022/03/06 09:31:35;;;;;;;6.07;4.30;;;19.70;47.80;;;;;;5052061;28;20476;-71
2022/03/06 09:34:02;;;;;;;7.63;4.60;;;18.40;47.70;;;;;;5052813;28;20545;-72
2022/03/06 09:36:29;;;;;;;4.97;4.23;;;17.80;48.10;;;;;;5053119;28;20525;-70
2022/03/06 09:38:56;;;;;;;6.13;4.73;;;18.00;48.70;;;;;;5053406;28;20447;-71
2022/03/06 09:41:27;;;;;;;5.07;4.17;;;18.40;48.10;;;;;;5052676;28;20549;-70
2022/03/06 09:43:56;;;;;;;7.10;4.33;;;18.90;46.80;;;;;;5053354;28;20457;-72
2022/03/06 09:46:23;;;;;;;5.70;4.00;;;18.30;46.00;;;;;;5053208;28;20445;-71
2022/03/06 09:48:51;;;;;;;4.87;4.37;;;17.70;47.60;;;;;;5052505;28;20577;-69
2022/03/06 09:51:18;;;;;;;5.80;4.77;;;17.70;46.60;;;;;;5052100;28;20549;-70
2022/03/06 09:53:45;;;;;;;4.30;3.80;;;17.70;46.80;;;;;;5052950;28;20442;-73
2022/03/06 09:56:12;;;;;;;6.70;5.00;;;18.00;46.50;;;;;;5052265;28;20790;-74
2022/03/06 09:58:39;;;;;;;5.53;4.53;;;18.50;45.60;;;;;;5052945;28;20205;-72
2022/03/06 10:01:12;;;;;;;6.03;5.00;;;18.00;44.00;;;;;;5052540;28;20469;-73
2022/03/06 10:03:39;;;;;;;5.50;4.60;;;18.30;45.30;;;;;;5052860;28;20461;-71
2022/03/06 10:06:09;;;;;;;7.10;4.80;;;18.40;44.60;;;;;;5052935;28;20440;-70
2022/03/06 10:08:36;;;;;;;6.73;5.40;;;18.30;44.90;;;;;;5052796;28;20471;-71
2022/03/06 10:11:06;;;;;;;5.93;4.67;;;18.30;44.10;;;;;;5043182;28;20478;-74
2022/03/06 10:13:34;;;;;;;6.40;5.70;;;17.20;43.80;;;;;;5050388;28;20502;-74
2022/03/06 10:16:09;;;;;;;6.67;4.90;;;17.00;44.70;;;;;;5051571;28;21167;-73
2022/03/06 10:18:38;;;;;;;6.10;4.80;;;16.70;44.70;;;;;;5051797;28;20505;-74
2022/03/06 10:21:23;;;;;;;5.10;4.57;;;17.20;45.20;;;;;;5043183;28;20474;-73
2022/03/06 10:23:52;;;;;;;5.10;4.47;;;17.20;44.70;;;;;;5050554;28;20482;-73
2022/03/06 10:26:20;;;;;;;7.37;5.87;;;17.20;45.30;;;;;;5051453;28;20481;-70
2022/03/06 10:28:54;;;;;;;6.70;5.30;;;17.50;45.30;;;;;;5051221;28;20470;-75
2022/03/06 10:31:22;;;;;;;5.87;5.27;;;18.20;45.00;;;;;;5049829;28;21296;-69
2022/03/06 10:34:06;;;;;;;6.67;4.03;;;17.50;44.30;;;;;;5047874;28;20556;-71
2022/03/06 10:36:38;;;;;;;7.00;4.20;;;17.10;45.50;;;;;;5045830;28;20465;-71
2022/03/06 10:39:13;;;;;;;6.67;5.40;;;16.80;45.10;;;;;;5052025;28;20876;-70
2022/03/06 10:41:43;;;;;;;6.47;5.82;;;17.20;45.80;;;;;;5049938;28;20531;-73
2022/03/06 10:44:11;;;;;;;4.97;4.50;;;16.80;45.30;;;;;;5052433;28;20202;-71
2022/03/06 10:46:39;;;;;;;4.93;4.43;;;16.70;45.90;;;;;;5051929;28;20453;-72
2022/03/06 10:49:13;;;;;;;6.10;4.97;;;16.70;45.50;;;;;;5051497;28;20495;-71
2022/03/06 10:51:43;;;;;;;5.95;5.25;;;16.10;45.30;;;;;;5049709;28;20471;-73
2022/03/06 10:54:13;;;;;;;9.68;7.38;;;15.00;46.10;;;;;;5051340;28;20627;-73
2022/03/06 10:56:40;;;;;;;4.85;4.35;;;13.90;47.30;;;;;;5051363;28;20219;-70
2022/03/06 10:59:08;;;;;;;11.85;4.97;;;13.10;49.20;;;;;;5050939;28;20285;-72
2022/03/06 11:01:36;;;;;;;8.50;5.72;;;12.40;50.20;;;;;;5051036;28;20571;-72
2022/03/06 11:04:04;;;;;;;5.88;5.15;;;12.00;52.00;;;;;;5051057;28;20219;-73
2022/03/06 11:06:38;;;;;;;6.03;5.43;;;11.80;53.20;;;;;;5040610;28;20565;-75
2022/03/06 11:09:11;;;;;;;6.60;4.75;;;12.00;53.00;;;;;;5037736;28;20238;-71
2022/03/06 11:11:40;;;;;;;6.15;5.50;;;12.10;52.80;;;;;;5039633;28;20219;-71
2022/03/06 11:14:07;;;;;;;7.68;5.72;;;11.90;52.70;;;;;;5044120;28;20197;-70
2022/03/06 11:16:35;;;;;;;7.15;5.07;;;11.40;53.60;;;;;;5051950;28;20299;-70
2022/03/06 11:19:02;;;;;;;4.50;4.07;;;11.30;54.10;;;;;;5051702;28;20601;-71
2022/03/06 11:21:30;;;;;;;5.45;4.20;;;11.20;54.20;;;;;;5050686;28;20261;-69
2022/03/06 11:23:58;;;;;;;6.15;4.35;;;11.30;54.20;;;;;;5051590;28;20233;-68
2022/03/06 11:26:49;;;;;;;6.82;4.38;;;11.20;54.40;;;;;;5051823;28;20220;-70
2022/03/06 11:29:55;;;;;;;5.47;4.97;;;11.20;54.20;;;;;;5045100;28;20624;-71
2022/03/06 11:32:27;;;;;;;6.35;4.75;;;10.90;53.70;;;;;;5015020;28;20220;-70
2022/03/06 11:35:00;;;;;;;5.82;4.50;;;10.80;54.90;;;;;;5051797;28;20213;-72
2022/03/06 11:37:29;;;;;;;6.03;3.78;;;10.60;55.60;;;;;;5046986;28;20214;-69
2022/03/06 11:39:56;;;;;;;5.50;3.78;;;10.50;55.60;;;;;;5052128;28;20248;-74
2022/03/06 11:43:00;;;;;;;4.07;3.60;;;10.50;54.90;;;;;;5053548;28;20281;-70
2022/03/06 11:46:02;;;;;;;11.00;4.05;;;10.70;54.70;;;;;;5039501;28;20322;-68
2022/03/06 11:49:05;;;;;;;8.10;3.97;;;10.60;54.00;;;;;;4994386;28;20224;-69
2022/03/06 11:51:33;;;;;;;3.72;3.30;;;10.30;55.00;;;;;;5035488;28;20823;-70
2022/03/06 11:54:05;;;;;;;5.07;3.83;;;10.30;55.60;;;;;;5036354;28;20204;-70
2022/03/06 11:56:53;;;;;;;3.30;2.67;;;9.90;55.70;;;;;;5036897;28;20239;-68
2022/03/06 11:59:26;;;;;;;3.63;3.10;;;9.90;56.40;;;;;;5044130;28;20797;-69
2022/03/06 12:01:56;;;;;;;6.53;2.90;;;10.00;55.80;;;;;;5054043;28;20306;-68
2022/03/06 12:04:26;;;;;;;4.18;3.35;;;9.90;56.60;;;;;;5039780;28;20718;-68
2022/03/06 12:06:55;;;;;;;3.17;2.58;;;10.00;56.00;;;;;;5038981;28;20642;-68
2022/03/06 12:09:23;;;;;;;5.63;3.40;;;9.90;56.60;;;;;;5041416;28;20303;-70
2022/03/06 12:11:52;;;;;;;3.95;2.90;;;9.70;56.70;;;;;;5053586;28;20314;-69
2022/03/06 12:14:21;;;;;;;3.60;2.90;;;9.40;58.00;;;;;;5054510;28;20233;-68
2022/03/06 12:17:26;;;;;;;5.00;2.65;;;9.50;58.40;;;;;;5047280;28;20196;-67
2022/03/06 12:20:34;;;;;;;2.83;2.60;;;9.30;57.80;;;;;;5052124;28;20238;-69
2022/03/06 12:23:04;;;;;;;4.53;2.70;;;8.70;58.50;;;;;;5052545;28;20272;-69
2022/03/06 12:25:35;;;;;;;5.40;3.78;;;8.10;59.90;;;;;;5053858;28;20249;-69
2022/03/06 12:28:24;;;;;;;4.13;3.50;;;7.90;61.70;;;;;;5053927;28;20203;-71
2022/03/06 12:30:51;;;;;;;4.40;2.92;;;8.00;62.80;;;;;;5051066;28;20233;-69
2022/03/06 12:33:39;;;;;;;4.10;3.00;;;8.40;63.10;;;;;;5054329;28;20207;-70
2022/03/06 12:36:18;;;;;;;3.97;3.08;;;8.60;63.00;;;;;;5046585;28;20222;-68
2022/03/06 12:38:46;;;;;;;4.20;3.58;;;8.80;61.90;;;;;;5052919;28;20593;-69
2022/03/06 12:41:13;;;;;;;5.03;3.05;;;8.80;62.20;;;;;;5053460;28;20227;-69
2022/03/06 12:43:47;;;;;;;6.47;3.25;;;8.90;62.60;;;;;;5053762;28;20264;-68
2022/03/06 12:46:14;;;;;;;5.50;3.45;;;8.90;62.70;;;;;;5053698;28;20634;-69
2022/03/06 12:48:43;;;;;;;7.03;2.90;;;9.10;63.00;;;;;;5053695;28;20245;-69
2022/03/06 12:51:10;;;;;;;6.80;3.35;;;9.00;61.70;;;;;;5052440;28;20228;-69
2022/03/06 12:53:44;;;;;;;6.35;3.70;;;9.10;62.40;;;;;;5053158;28;20203;-69
2022/03/06 12:56:11;;;;;;;3.45;2.67;;;9.10;62.80;;;;;;5050147;28;20199;-69
2022/03/06 12:58:41;;;;;;;5.75;3.80;;;9.10;63.30;;;;;;5053769;28;20273;-70
2022/03/06 13:01:09;;;;;;;3.22;2.80;;;9.00;63.80;;;;;;5052866;28;20282;-69